Terminal Aerodrome Forecast
Issued by NWS

Home | Current Version | Previous Version | Text Only | Print | Product List | Glossary Off
Versions: 1 2 3 4 5 6 7 8 9 10 11 12 13 14 15 16 17 18 19 20 21 22 23 24 25 26 27 28 29 30 31

000
FTUS43 KPAH 280500
TAFOWB
TAF
KOWB 280523Z 2806/2906 34008KT 6SM BR BKN008 OVC020
     FM281600 36007KT P6SM BKN020
     FM282200 36008KT P6SM BKN035 OVC050=

USA.gov is the U.S. government's official web portal to all federal, state and local government web resources and services.